Main page
METAR-TAF:

METAR-TAF

Airports :

Troll A, Norway

Oil platform

latitude: 60-38-42N, longitude: 3-43-29E, elevation: 20 m

Current weather observation

The report was made 26 minutes ago, at 18:20 UTC
Wind 8 kt from the West
Temperature 7°C
Humidity 100%
Pressure 1027 hPa
Visibility: 1100 m
patches of fog

METAR: ENQA 261820Z AUTO 26008KT 1100NDV BCFG OVC006/// 07/07 Q1027 W04/S4

Time: 20:46 (18:46 UTC)


TAF: missing

Weather observations and forecasts of more than 4000 airports (METAR and TAF reports).

The available stations are represented by yellow and red dots on the map.

Hover mouse over dot to see the name of the station.

Then click to see weather observations and forecasts.

To change the map : click on the green buttons with a black cross to zoom in, on the green button with a dash to zoom out, or on the green arrows for adjacent maps.


METAR-TAF: